Station Historical Data
Daily Summary for March 11, 2012 Units:  Both    English   Metric
« Previous Day
Next Day »
Daily Weekly Monthly Yearly Custom
  High: Low: Average:
Temperature: 66.1 °F /  18.9 °C 47.2 °F /  8.4 °C 57.3 °F /  14.1 °C
Dew Point: 56.0 °F /  13.3 °C 32.6 °F /  0.3 °C 44.5 °F /  6.9 °C
Humidity: 77% 51% 62%
Wind Speed: 20.0mph /  32.2km/h - 8.6mph /  13.8km/h
Wind Gust: 21.0mph /  33.8km/h - -
Wind- - ESE
Pressure: 30.38 in /  1028.7 hPa 30.16 in /  1021.2 hPa -
Precipitation: 0.00 in /  0 mm    
Historical Graphs
 
 
Tabular Data for March 11, 2012
Time Temperature Dew Point Pressure Wind Wind Speed Wind Gust Humidity Rainfall Rate (Hourly) Conditions
00:00 50.1 °F /  10.1 °C 35.9 °F /  2.2 °C 30.30in /  1026hPa ESE 3.0mph /  4.8km/h 4.0mph /  6.4km/h 58% 0.00in /  0mm
00:05 50.1 °F /  10.1 °C 36.3 °F /  2.4 °C 30.30in /  1026hPa East 2.0mph /  3.2km/h 4.0mph /  6.4km/h 59% 0.00in /  0mm
00:10 50.1 °F /  10.1 °C 35.9 °F /  2.2 °C 30.30in /  1026hPa ESE 5.0mph /  8km/h 6.0mph /  9.7km/h 58% 0.00in /  0mm
00:15 50.5 °F /  10.3 °C 36.3 °F /  2.4 °C 30.30in /  1026hPa East 5.0mph /  8km/h 6.0mph /  9.7km/h 58% 0.00in /  0mm
00:20 50.7 °F /  10.4 °C 36.0 °F /  2.2 °C 30.30in /  1026hPa ESE 5.0mph /  8km/h 7.0mph /  11.3km/h 57% 0.00in /  0mm
00:25 50.9 °F /  10.5 °C 36.2 °F /  2.3 °C 30.30in /  1026hPa ESE 4.0mph /  6.4km/h 7.0mph /  11.3km/h 57% 0.00in /  0mm
00:30 50.9 °F /  10.5 °C 36.2 °F /  2.3 °C 30.30in /  1026hPa SE 5.0mph /  8km/h 8.0mph /  12.9km/h 57% 0.00in /  0mm
00:36 51.0 °F /  10.6 °C 36.3 °F /  2.4 °C 30.30in /  1026hPa ESE 6.0mph /  9.7km/h 7.0mph /  11.3km/h 57% 0.00in /  0mm
00:41 50.8 °F /  10.4 °C 36.1 °F /  2.3 °C 30.30in /  1026hPa ESE 5.0mph /  8km/h 8.0mph /  12.9km/h 57% 0.00in /  0mm
00:46 50.8 °F /  10.4 °C 36.1 °F /  2.3 °C 30.30in /  1026hPa ESE 5.0mph /  8km/h 7.0mph /  11.3km/h 57% 0.00in /  0mm
00:51 50.6 °F /  10.3 °C 35.9 °F /  2.2 °C 30.30in /  1026hPa ESE 4.0mph /  6.4km/h 6.0mph /  9.7km/h 57% 0.00in /  0mm
00:56 50.5 °F /  10.3 °C 35.4 °F /  1.9 °C 30.30in /  1026hPa ESE 5.0mph /  8km/h 6.0mph /  9.7km/h 56% 0.00in /  0mm
01:01 50.6 °F /  10.3 °C 35.5 °F /  1.9 °C 30.30in /  1026hPa ESE 4.0mph /  6.4km/h 8.0mph /  12.9km/h 56% 0.00in /  0mm
01:06 50.4 °F /  10.2 °C 35.3 °F /  1.8 °C 30.30in /  1026hPa ESE 5.0mph /  8km/h 7.0mph /  11.3km/h 56% 0.00in /  0mm
01:11 50.4 °F /  10.2 °C 35.3 °F /  1.8 °C 30.30in /  1026hPa SE 5.0mph /  8km/h 7.0mph /  11.3km/h 56% 0.00in /  0mm
01:16 50.3 °F /  10.2 °C 35.2 °F /  1.8 °C 30.30in /  1026hPa SE 5.0mph /  8km/h 8.0mph /  12.9km/h 56% 0.00in /  0mm
01:21 50.1 °F /  10.1 °C 35.0 °F /  1.7 °C 30.30in /  1026hPa ESE 5.0mph /  8km/h 6.0mph /  9.7km/h 56% 0.00in /  0mm
01:26 50.0 °F /  10 °C 35.4 °F /  1.9 °C 30.30in /  1026hPa ESE 6.0mph /  9.7km/h 6.0mph /  9.7km/h 57% 0.00in /  0mm
01:31 50.0 °F /  10 °C 34.9 °F /  1.6 °C 30.30in /  1026hPa ESE 5.0mph /  8km/h 7.0mph /  11.3km/h 56% 0.00in /  0mm
01:36 49.9 °F /  9.9 °C 35.3 °F /  1.8 °C 30.30in /  1026hPa SE 4.0mph /  6.4km/h 7.0mph /  11.3km/h 57% 0.00in /  0mm
01:41 49.6 °F /  9.8 °C 35.0 °F /  1.7 °C 30.31in /  1026.3hPa ESE 4.0mph /  6.4km/h 6.0mph /  9.7km/h 57% 0.00in /  0mm
01:46 49.9 °F /  9.9 °C 34.8 °F /  1.6 °C 30.31in /  1026.3hPa ESE 5.0mph /  8km/h 6.0mph /  9.7km/h 56% 0.00in /  0mm
01:51 49.9 °F /  9.9 °C 34.8 °F /  1.6 °C 30.31in /  1026.3hPa ESE 5.0mph /  8km/h 7.0mph /  11.3km/h 56% 0.00in /  0mm
01:56 49.6 °F /  9.8 °C 35.0 °F /  1.7 °C 30.31in /  1026.3hPa ESE 6.0mph /  9.7km/h 6.0mph /  9.7km/h 57% 0.00in /  0mm
03:01 49.8 °F /  9.9 °C 34.8 °F /  1.6 °C 30.31in /  1026.3hPa ESE 6.0mph /  9.7km/h 9.0mph /  14.5km/h 56% 0.00in /  0mm
03:06 49.9 °F /  9.9 °C 34.8 °F /  1.6 °C 30.31in /  1026.3hPa ESE 6.0mph /  9.7km/h 8.0mph /  12.9km/h 56% 0.00in /  0mm
03:11 50.0 °F /  10 °C 34.9 °F /  1.6 °C 30.31in /  1026.3hPa ESE 5.0mph /  8km/h 7.0mph /  11.3km/h 56% 0.00in /  0mm
03:16 49.8 °F /  9.9 °C 34.8 °F /  1.6 °C 30.31in /  1026.3hPa ESE 4.0mph /  6.4km/h 7.0mph /  11.3km/h 56% 0.00in /  0mm
03:21 49.7 °F /  9.8 °C 34.7 °F /  1.5 °C 30.31in /  1026.3hPa ESE 4.0mph /  6.4km/h 8.0mph /  12.9km/h 56% 0.00in /  0mm
03:26 49.4 °F /  9.7 °C 34.8 °F /  1.6 °C 30.31in /  1026.3hPa ESE 4.0mph /  6.4km/h 6.0mph /  9.7km/h 57% 0.00in /  0mm
03:31 49.2 °F /  9.6 °C 34.6 °F /  1.4 °C 30.31in /  1026.3hPa East 4.0mph /  6.4km/h 6.0mph /  9.7km/h 57% 0.00in /  0mm
03:36 49.1 °F /  9.5 °C 34.5 °F /  1.4 °C 30.31in /  1026.3hPa ESE 5.0mph /  8km/h 6.0mph /  9.7km/h 57% 0.00in /  0mm
03:42 48.7 °F /  9.3 °C 34.6 °F /  1.4 °C 30.31in /  1026.3hPa ESE 4.0mph /  6.4km/h 5.0mph /  8km/h 58% 0.00in /  0mm
03:47 48.4 °F /  9.1 °C 34.8 °F /  1.6 °C 30.31in /  1026.3hPa ESE 3.0mph /  4.8km/h 5.0mph /  8km/h 59% 0.00in /  0mm
03:52 48.2 °F /  9 °C 34.6 °F /  1.4 °C 30.31in /  1026.3hPa East 4.0mph /  6.4km/h 5.0mph /  8km/h 59% 0.00in /  0mm
03:57 48.2 °F /  9 °C 34.6 °F /  1.4 °C 30.31in /  1026.3hPa ESE 4.0mph /  6.4km/h 6.0mph /  9.7km/h 59% 0.00in /  0mm
04:02 48.1 °F /  8.9 °C 34.5 °F /  1.4 °C 30.31in /  1026.3hPa ESE 3.0mph /  4.8km/h 6.0mph /  9.7km/h 59% 0.00in /  0mm
04:07 48.0 °F /  8.9 °C 34.4 °F /  1.3 °C 30.30in /  1026hPa ESE 6.0mph /  9.7km/h 8.0mph /  12.9km/h 59% 0.00in /  0mm
04:12 48.2 °F /  9 °C 34.6 °F /  1.4 °C 30.31in /  1026.3hPa ESE 5.0mph /  8km/h 8.0mph /  12.9km/h 59% 0.00in /  0mm
04:17 48.1 °F /  8.9 °C 34.5 °F /  1.4 °C 30.30in /  1026hPa ESE 5.0mph /  8km/h 6.0mph /  9.7km/h 59% 0.00in /  0mm
04:22 47.9 °F /  8.8 °C 34.7 °F /  1.5 °C 30.30in /  1026hPa ESE 2.0mph /  3.2km/h 5.0mph /  8km/h 60% 0.00in /  0mm
04:27 47.7 °F /  8.7 °C 34.5 °F /  1.4 °C 30.30in /  1026hPa ESE 3.0mph /  4.8km/h 5.0mph /  8km/h 60% 0.00in /  0mm
04:32 47.6 °F /  8.7 °C 34.4 °F /  1.3 °C 30.31in /  1026.3hPa ESE 3.0mph /  4.8km/h 4.0mph /  6.4km/h 60% 0.00in /  0mm
04:37 47.2 °F /  8.4 °C 34.0 °F /  1.1 °C 30.31in /  1026.3hPa ESE 3.0mph /  4.8km/h 4.0mph /  6.4km/h 60% 0.00in /  0mm
04:42 47.2 °F /  8.4 °C 34.5 °F /  1.4 °C 30.31in /  1026.3hPa ESE 2.0mph /  3.2km/h 3.0mph /  4.8km/h 61% 0.00in /  0mm
04:47 47.3 °F /  8.5 °C 34.1 °F /  1.2 °C 30.31in /  1026.3hPa ESE 3.0mph /  4.8km/h 5.0mph /  8km/h 60% 0.00in /  0mm
04:52 47.3 °F /  8.5 °C 34.1 °F /  1.2 °C 30.31in /  1026.3hPa ESE 4.0mph /  6.4km/h 5.0mph /  8km/h 60% 0.00in /  0mm
04:57 47.3 °F /  8.5 °C 34.1 °F /  1.2 °C 30.31in /  1026.3hPa ESE 4.0mph /  6.4km/h 6.0mph /  9.7km/h 60% 0.00in /  0mm
05:02 47.5 °F /  8.6 °C 34.3 °F /  1.3 °C 30.31in /  1026.3hPa SE 4.0mph /  6.4km/h 6.0mph /  9.7km/h 60% 0.00in /  0mm
05:07 47.3 °F /  8.5 °C 34.1 °F /  1.2 °C 30.31in /  1026.3hPa SE 4.0mph /  6.4km/h 6.0mph /  9.7km/h 60% 0.00in /  0mm
05:12 47.4 °F /  8.6 °C 34.2 °F /  1.2 °C 30.32in /  1026.6hPa ESE 4.0mph /  6.4km/h 6.0mph /  9.7km/h 60% 0.00in /  0mm
05:17 47.3 °F /  8.5 °C 34.1 °F /  1.2 °C 30.31in /  1026.3hPa ESE 6.0mph /  9.7km/h 6.0mph /  9.7km/h 60% 0.00in /  0mm
05:22 47.4 °F /  8.6 °C 34.2 °F /  1.2 °C 30.31in /  1026.3hPa ESE 5.0mph /  8km/h 6.0mph /  9.7km/h 60% 0.00in /  0mm
05:27 47.3 °F /  8.5 °C 34.1 °F /  1.2 °C 30.31in /  1026.3hPa ESE 5.0mph /  8km/h 5.0mph /  8km/h 60% 0.00in /  0mm
05:32 47.3 °F /  8.5 °C 34.1 °F /  1.2 °C 30.31in /  1026.3hPa ESE 6.0mph /  9.7km/h 7.0mph /  11.3km/h 60% 0.00in /  0mm
05:37 47.3 °F /  8.5 °C 34.1 °F /  1.2 °C 30.31in /  1026.3hPa SE 5.0mph /  8km/h 7.0mph /  11.3km/h 60% 0.00in /  0mm
05:42 47.3 °F /  8.5 °C 34.1 °F /  1.2 °C 30.31in /  1026.3hPa ESE 4.0mph /  6.4km/h 6.0mph /  9.7km/h 60% 0.00in /  0mm
05:47 47.2 °F /  8.4 °C 34.0 °F /  1.1 °C 30.32in /  1026.6hPa ESE 5.0mph /  8km/h 7.0mph /  11.3km/h 60% 0.00in /  0mm
05:52 47.3 °F /  8.5 °C 34.1 °F /  1.2 °C 30.31in /  1026.3hPa ESE 8.0mph /  12.9km/h 8.0mph /  12.9km/h 60% 0.00in /  0mm
05:57 47.4 °F /  8.6 °C 33.8 °F /  1 °C 30.32in /  1026.6hPa ESE 5.0mph /  8km/h 7.0mph /  11.3km/h 59% 0.00in /  0mm
06:02 47.6 °F /  8.7 °C 34.0 °F /  1.1 °C 30.32in /  1026.6hPa ESE 7.0mph /  11.3km/h 9.0mph /  14.5km/h 59% 0.00in /  0mm
06:07 47.8 °F /  8.8 °C 33.8 °F /  1 °C 30.31in /  1026.3hPa ESE 8.0mph /  12.9km/h 9.0mph /  14.5km/h 58% 0.00in /  0mm
06:12 47.8 °F /  8.8 °C 34.2 °F /  1.2 °C 30.31in /  1026.3hPa ESE 4.0mph /  6.4km/h 7.0mph /  11.3km/h 59% 0.00in /  0mm
06:17 47.8 °F /  8.8 °C 34.2 °F /  1.2 °C 30.31in /  1026.3hPa ESE 6.0mph /  9.7km/h 7.0mph /  11.3km/h 59% 0.00in /  0mm
06:22 47.8 °F /  8.8 °C 33.8 °F /  1 °C 30.32in /  1026.6hPa ESE 6.0mph /  9.7km/h 7.0mph /  11.3km/h 58% 0.00in /  0mm
06:27 47.8 °F /  8.8 °C 33.8 °F /  1 °C 30.32in /  1026.6hPa ESE 4.0mph /  6.4km/h 7.0mph /  11.3km/h 58% 0.00in /  0mm
06:32 47.7 °F /  8.7 °C 33.7 °F /  0.9 °C 30.32in /  1026.6hPa SE 5.0mph /  8km/h 7.0mph /  11.3km/h 58% 0.00in /  0mm
06:37 47.6 °F /  8.7 °C 33.6 °F /  0.9 °C 30.32in /  1026.6hPa ESE 4.0mph /  6.4km/h 5.0mph /  8km/h 58% 0.00in /  0mm
06:42 47.6 °F /  8.7 °C 33.6 °F /  0.9 °C 30.32in /  1026.6hPa ESE 4.0mph /  6.4km/h 6.0mph /  9.7km/h 58% 0.00in /  0mm
06:47 47.7 °F /  8.7 °C 33.7 °F /  0.9 °C 30.32in /  1026.6hPa East 4.0mph /  6.4km/h 6.0mph /  9.7km/h 58% 0.00in /  0mm
06:53 47.8 °F /  8.8 °C 33.3 °F /  0.7 °C 30.32in /  1026.6hPa ESE 5.0mph /  8km/h 7.0mph /  11.3km/h 57% 0.00in /  0mm
06:58 47.9 °F /  8.8 °C 33.4 °F /  0.8 °C 30.32in /  1026.6hPa SE 5.0mph /  8km/h 8.0mph /  12.9km/h 57% 0.00in /  0mm
07:03 48.0 °F /  8.9 °C 33.5 °F /  0.8 °C 30.33in /  1027hPa ESE 6.0mph /  9.7km/h 10.0mph /  16.1km/h 57% 0.00in /  0mm
07:08 48.2 °F /  9 °C 33.3 °F /  0.7 °C 30.32in /  1026.6hPa ESE 7.0mph /  11.3km/h 9.0mph /  14.5km/h 56% 0.00in /  0mm
07:13 48.2 °F /  9 °C 33.3 °F /  0.7 °C 30.33in /  1027hPa ESE 6.0mph /  9.7km/h 10.0mph /  16.1km/h 56% 0.00in /  0mm
07:18 48.1 °F /  8.9 °C 33.2 °F /  0.7 °C 30.33in /  1027hPa ESE 9.0mph /  14.5km/h 9.0mph /  14.5km/h 56% 0.00in /  0mm
07:23 48.1 °F /  8.9 °C 33.2 °F /  0.7 °C 30.33in /  1027hPa ESE 8.0mph /  12.9km/h 9.0mph /  14.5km/h 56% 0.00in /  0mm
07:28 48.3 °F /  9.1 °C 32.9 °F /  0.5 °C 30.33in /  1027hPa ESE 9.0mph /  14.5km/h 11.0mph /  17.7km/h 55% 0.00in /  0mm
07:33 48.3 °F /  9.1 °C 33.3 °F /  0.7 °C 30.34in /  1027.3hPa ESE 6.0mph /  9.7km/h 9.0mph /  14.5km/h 56% 0.00in /  0mm
07:38 48.5 °F /  9.2 °C 33.1 °F /  0.6 °C 30.34in /  1027.3hPa SE 6.0mph /  9.7km/h 9.0mph /  14.5km/h 55% 0.00in /  0mm
07:43 48.5 °F /  9.2 °C 32.6 °F /  0.3 °C 30.34in /  1027.3hPa ESE 4.0mph /  6.4km/h 9.0mph /  14.5km/h 54% 0.00in /  0mm
07:48 48.3 °F /  9.1 °C 33.3 °F /  0.7 °C 30.34in /  1027.3hPa ESE 5.0mph /  8km/h 11.0mph /  17.7km/h 56% 0.00in /  0mm
07:53 48.2 °F /  9 °C 32.8 °F /  0.4 °C 30.35in /  1027.7hPa ESE 4.0mph /  6.4km/h 8.0mph /  12.9km/h 55% 0.00in /  0mm
07:58 48.2 °F /  9 °C 33.3 °F /  0.7 °C 30.35in /  1027.7hPa East 5.0mph /  8km/h 8.0mph /  12.9km/h 56% 0.00in /  0mm
08:03 48.3 °F /  9.1 °C 32.9 °F /  0.5 °C 30.35in /  1027.7hPa ESE 6.0mph /  9.7km/h 10.0mph /  16.1km/h 55% 0.00in /  0mm
08:08 48.4 °F /  9.1 °C 33.0 °F /  0.6 °C 30.35in /  1027.7hPa ESE 7.0mph /  11.3km/h 10.0mph /  16.1km/h 55% 0.00in /  0mm
08:13 48.6 °F /  9.2 °C 33.2 °F /  0.7 °C 30.34in /  1027.3hPa SE 9.0mph /  14.5km/h 11.0mph /  17.7km/h 55% 0.00in /  0mm
08:18 48.7 °F /  9.3 °C 33.3 °F /  0.7 °C 30.35in /  1027.7hPa SE 6.0mph /  9.7km/h 11.0mph /  17.7km/h 55% 0.00in /  0mm
08:23 48.9 °F /  9.4 °C 33.0 °F /  0.6 °C 30.34in /  1027.3hPa ESE 9.0mph /  14.5km/h 11.0mph /  17.7km/h 54% 0.00in /  0mm
08:28 49.3 °F /  9.6 °C 33.4 °F /  0.8 °C 30.35in /  1027.7hPa ESE 7.0mph /  11.3km/h 11.0mph /  17.7km/h 54% 0.00in /  0mm
08:33 49.3 °F /  9.6 °C 33.8 °F /  1 °C 30.35in /  1027.7hPa SE 7.0mph /  11.3km/h 11.0mph /  17.7km/h 55% 0.00in /  0mm
08:38 49.3 °F /  9.6 °C 33.8 °F /  1 °C 30.35in /  1027.7hPa ESE 10.0mph /  16.1km/h 11.0mph /  17.7km/h 55% 0.00in /  0mm
08:43 49.2 °F /  9.6 °C 34.2 °F /  1.2 °C 30.35in /  1027.7hPa ESE 7.0mph /  11.3km/h 10.0mph /  16.1km/h 56% 0.00in /  0mm
08:48 49.1 °F /  9.5 °C 33.7 °F /  0.9 °C 30.35in /  1027.7hPa ESE 11.0mph /  17.7km/h 12.0mph /  19.3km/h 55% 0.00in /  0mm
08:53 49.1 °F /  9.5 °C 33.7 °F /  0.9 °C 30.35in /  1027.7hPa ESE 8.0mph /  12.9km/h 13.0mph /  20.9km/h 55% 0.00in /  0mm
08:58 49.2 °F /  9.6 °C 33.7 °F /  0.9 °C 30.35in /  1027.7hPa ESE 10.0mph /  16.1km/h 15.0mph /  24.1km/h 55% 0.00in /  0mm
09:03 49.5 °F /  9.7 °C 34.5 °F /  1.4 °C 30.35in /  1027.7hPa ESE 9.0mph /  14.5km/h 13.0mph /  20.9km/h 56% 0.00in /  0mm
09:08 50.1 °F /  10.1 °C 35.0 °F /  1.7 °C 30.35in /  1027.7hPa East 12.0mph /  19.3km/h 12.0mph /  19.3km/h 56% 0.00in /  0mm
09:13 50.6 °F /  10.3 °C 35.0 °F /  1.7 °C 30.35in /  1027.7hPa ESE 11.0mph /  17.7km/h 13.0mph /  20.9km/h 55% 0.00in /  0mm
09:18 51.0 °F /  10.6 °C 35.9 °F /  2.2 °C 30.35in /  1027.7hPa SE 11.0mph /  17.7km/h 17.0mph /  27.4km/h 56% 0.00in /  0mm
09:23 51.6 °F /  10.9 °C 35.5 °F /  1.9 °C 30.35in /  1027.7hPa ESE 13.0mph /  20.9km/h 17.0mph /  27.4km/h 54% 0.00in /  0mm
09:28 52.1 °F /  11.2 °C 36.0 °F /  2.2 °C 30.36in /  1028hPa ESE 10.0mph /  16.1km/h 14.0mph /  22.5km/h 54% 0.00in /  0mm
09:33 52.4 °F /  11.3 °C 36.7 °F /  2.6 °C 30.36in /  1028hPa ESE 9.0mph /  14.5km/h 14.0mph /  22.5km/h 55% 0.00in /  0mm
09:39 52.6 °F /  11.4 °C 36.5 °F /  2.5 °C 30.36in /  1028hPa ESE 11.0mph /  17.7km/h 13.0mph /  20.9km/h 54% 0.00in /  0mm
09:44 52.3 °F /  11.3 °C 37.1 °F /  2.8 °C 30.36in /  1028hPa ESE 9.0mph /  14.5km/h 12.0mph /  19.3km/h 56% 0.00in /  0mm
09:49 52.5 °F /  11.4 °C 36.8 °F /  2.7 °C 30.36in /  1028hPa ESE 8.0mph /  12.9km/h 13.0mph /  20.9km/h 55% 0.00in /  0mm
09:54 53.3 °F /  11.8 °C 38.0 °F /  3.3 °C 30.36in /  1028hPa ESE 16.0mph /  25.7km/h 16.0mph /  25.7km/h 56% 0.00in /  0mm
09:59 54.0 °F /  12.2 °C 37.8 °F /  3.2 °C 30.36in /  1028hPa SE 9.0mph /  14.5km/h 14.0mph /  22.5km/h 54% 0.00in /  0mm
10:04 54.7 °F /  12.6 °C 37.9 °F /  3.3 °C 30.36in /  1028hPa SE 13.0mph /  20.9km/h 15.0mph /  24.1km/h 53% 0.00in /  0mm
10:09 54.5 °F /  12.5 °C 36.8 °F /  2.7 °C 30.37in /  1028.3hPa ESE 9.0mph /  14.5km/h 18.0mph /  29km/h 51% 0.00in /  0mm
10:14 54.3 °F /  12.4 °C 37.5 °F /  3.1 °C 30.36in /  1028hPa SE 16.0mph /  25.7km/h 16.0mph /  25.7km/h 53% 0.00in /  0mm
10:19 54.1 °F /  12.3 °C 37.8 °F /  3.2 °C 30.37in /  1028.3hPa SE 10.0mph /  16.1km/h 18.0mph /  29km/h 54% 0.00in /  0mm
10:24 53.9 °F /  12.2 °C 37.7 °F /  3.2 °C 30.36in /  1028hPa SE 9.0mph /  14.5km/h 15.0mph /  24.1km/h 54% 0.00in /  0mm
10:29 53.9 °F /  12.2 °C 37.2 °F /  2.9 °C 30.37in /  1028.3hPa ESE 11.0mph /  17.7km/h 15.0mph /  24.1km/h 53% 0.00in /  0mm
10:34 54.0 °F /  12.2 °C 36.8 °F /  2.7 °C 30.37in /  1028.3hPa SE 10.0mph /  16.1km/h 14.0mph /  22.5km/h 52% 0.00in /  0mm
10:39 54.2 °F /  12.3 °C 37.9 °F /  3.3 °C 30.37in /  1028.3hPa SE 13.0mph /  20.9km/h 13.0mph /  20.9km/h 54% 0.00in /  0mm
10:44 54.3 °F /  12.4 °C 38.0 °F /  3.3 °C 30.38in /  1028.7hPa SE 13.0mph /  20.9km/h 15.0mph /  24.1km/h 54% 0.00in /  0mm
10:49 54.4 °F /  12.4 °C 38.6 °F /  3.7 °C 30.37in /  1028.3hPa ESE 13.0mph /  20.9km/h 14.0mph /  22.5km/h 55% 0.00in /  0mm
10:54 54.4 °F /  12.4 °C 38.6 °F /  3.7 °C 30.37in /  1028.3hPa SSE 7.0mph /  11.3km/h 16.0mph /  25.7km/h 55% 0.00in /  0mm
10:59 54.4 °F /  12.4 °C 38.6 °F /  3.7 °C 30.37in /  1028.3hPa East 12.0mph /  19.3km/h 18.0mph /  29km/h 55% 0.00in /  0mm
11:04 54.6 °F /  12.6 °C 39.7 °F /  4.3 °C 30.37in /  1028.3hPa ESE 13.0mph /  20.9km/h 13.0mph /  20.9km/h 57% 0.00in /  0mm
11:09 55.1 °F /  12.8 °C 39.7 °F /  4.3 °C 30.37in /  1028.3hPa ESE 8.0mph /  12.9km/h 13.0mph /  20.9km/h 56% 0.00in /  0mm
11:14 55.5 °F /  13.1 °C 40.1 °F /  4.5 °C 30.37in /  1028.3hPa SE 10.0mph /  16.1km/h 14.0mph /  22.5km/h 56% 0.00in /  0mm
11:19 55.6 °F /  13.1 °C 40.2 °F /  4.6 °C 30.37in /  1028.3hPa ESE 11.0mph /  17.7km/h 12.0mph /  19.3km/h 56% 0.00in /  0mm
11:24 55.9 °F /  13.3 °C 40.5 °F /  4.7 °C 30.37in /  1028.3hPa SE 11.0mph /  17.7km/h 15.0mph /  24.1km/h 56% 0.00in /  0mm
11:29 56.3 °F /  13.5 °C 41.7 °F /  5.4 °C 30.37in /  1028.3hPa SE 12.0mph /  19.3km/h 12.0mph /  19.3km/h 58% 0.00in /  0mm
11:34 56.9 °F /  13.8 °C 42.3 °F /  5.7 °C 30.37in /  1028.3hPa SE 12.0mph /  19.3km/h 12.0mph /  19.3km/h 58% 0.00in /  0mm
11:39 57.4 °F /  14.1 °C 41.8 °F /  5.4 °C 30.37in /  1028.3hPa SE 9.0mph /  14.5km/h 14.0mph /  22.5km/h 56% 0.00in /  0mm
11:44 57.6 °F /  14.2 °C 42.5 °F /  5.8 °C 30.36in /  1028hPa ESE 14.0mph /  22.5km/h 16.0mph /  25.7km/h 57% 0.00in /  0mm
11:49 57.8 °F /  14.3 °C 43.1 °F /  6.2 °C 30.35in /  1027.7hPa SSE 6.0mph /  9.7km/h 15.0mph /  24.1km/h 58% 0.00in /  0mm
11:54 59.0 °F /  15 °C 44.3 °F /  6.8 °C 30.35in /  1027.7hPa ESE 10.0mph /  16.1km/h 17.0mph /  27.4km/h 58% 0.00in /  0mm
11:59 59.2 °F /  15.1 °C 44.9 °F /  7.2 °C 30.35in /  1027.7hPa SE 12.0mph /  19.3km/h 12.0mph /  19.3km/h 59% 0.00in /  0mm
12:04 59.2 °F /  15.1 °C 45.3 °F /  7.4 °C 30.35in /  1027.7hPa ESE 19.0mph /  30.6km/h 19.0mph /  30.6km/h 60% 0.00in /  0mm
12:09 59.3 °F /  15.2 °C 46.7 °F /  8.2 °C 30.34in /  1027.3hPa ESE 16.0mph /  25.7km/h 21.0mph /  33.8km/h 63% 0.00in /  0mm
12:14 60.2 °F /  15.7 °C 46.7 °F /  8.2 °C 30.34in /  1027.3hPa ESE 11.0mph /  17.7km/h 17.0mph /  27.4km/h 61% 0.00in /  0mm
12:19 60.3 °F /  15.7 °C 46.8 °F /  8.2 °C 30.34in /  1027.3hPa SSE 11.0mph /  17.7km/h 17.0mph /  27.4km/h 61% 0.00in /  0mm
12:24 60.3 °F /  15.7 °C 47.2 °F /  8.4 °C 30.34in /  1027.3hPa SSE 13.0mph /  20.9km/h 15.0mph /  24.1km/h 62% 0.00in /  0mm
12:29 60.7 °F /  15.9 °C 47.6 °F /  8.7 °C 30.34in /  1027.3hPa SE 12.0mph /  19.3km/h 14.0mph /  22.5km/h 62% 0.00in /  0mm
12:34 60.8 °F /  16 °C 48.1 °F /  8.9 °C 30.33in /  1027hPa SE 10.0mph /  16.1km/h 14.0mph /  22.5km/h 63% 0.00in /  0mm
12:40 61.2 °F /  16.2 °C 48.5 °F /  9.2 °C 30.33in /  1027hPa SE 15.0mph /  24.1km/h 16.0mph /  25.7km/h 63% 0.00in /  0mm
12:45 61.4 °F /  16.3 °C 47.8 °F /  8.8 °C 30.33in /  1027hPa ESE 11.0mph /  17.7km/h 16.0mph /  25.7km/h 61% 0.00in /  0mm
12:50 60.9 °F /  16.1 °C 47.4 °F /  8.6 °C 30.33in /  1027hPa SE 12.0mph /  19.3km/h 20.0mph /  32.2km/h 61% 0.00in /  0mm
12:55 61.2 °F /  16.2 °C 48.1 °F /  8.9 °C 30.33in /  1027hPa SE 13.0mph /  20.9km/h 17.0mph /  27.4km/h 62% 0.00in /  0mm
13:00 61.9 °F /  16.6 °C 48.8 °F /  9.3 °C 30.33in /  1027hPa SE 12.0mph /  19.3km/h 12.0mph /  19.3km/h 62% 0.00in /  0mm
13:05 62.2 °F /  16.8 °C 49.5 °F /  9.7 °C 30.32in /  1026.6hPa SE 7.0mph /  11.3km/h 14.0mph /  22.5km/h 63% 0.00in /  0mm
13:10 62.0 °F /  16.7 °C 48.8 °F /  9.3 °C 30.32in /  1026.6hPa SE 9.0mph /  14.5km/h 17.0mph /  27.4km/h 62% 0.00in /  0mm
13:15 61.8 °F /  16.6 °C 48.2 °F /  9 °C 30.32in /  1026.6hPa ESE 11.0mph /  17.7km/h 14.0mph /  22.5km/h 61% 0.00in /  0mm
13:20 61.7 °F /  16.5 °C 48.6 °F /  9.2 °C 30.32in /  1026.6hPa ESE 12.0mph /  19.3km/h 17.0mph /  27.4km/h 62% 0.00in /  0mm
13:25 61.5 °F /  16.4 °C 48.4 °F /  9.1 °C 30.31in /  1026.3hPa ESE 9.0mph /  14.5km/h 18.0mph /  29km/h 62% 0.00in /  0mm
13:30 61.7 °F /  16.5 °C 48.6 °F /  9.2 °C 30.31in /  1026.3hPa ESE 13.0mph /  20.9km/h 16.0mph /  25.7km/h 62% 0.00in /  0mm
13:35 61.7 °F /  16.5 °C 49.0 °F /  9.4 °C 30.31in /  1026.3hPa ESE 13.0mph /  20.9km/h 17.0mph /  27.4km/h 63% 0.00in /  0mm
13:41 62.0 °F /  16.7 °C 49.7 °F /  9.8 °C 30.30in /  1026hPa SE 9.0mph /  14.5km/h 13.0mph /  20.9km/h 64% 0.00in /  0mm
13:46 62.0 °F /  16.7 °C 49.3 °F /  9.6 °C 30.30in /  1026hPa ESE 13.0mph /  20.9km/h 15.0mph /  24.1km/h 63% 0.00in /  0mm
13:51 62.2 °F /  16.8 °C 49.9 °F /  9.9 °C 30.30in /  1026hPa SE 13.0mph /  20.9km/h 19.0mph /  30.6km/h 64% 0.00in /  0mm
13:56 62.6 °F /  17 °C 50.3 °F /  10.2 °C 30.30in /  1026hPa ESE 10.0mph /  16.1km/h 11.0mph /  17.7km/h 64% 0.00in /  0mm
14:01 62.9 °F /  17.2 °C 50.5 °F /  10.3 °C 30.30in /  1026hPa SE 9.0mph /  14.5km/h 16.0mph /  25.7km/h 64% 0.00in /  0mm
14:06 62.8 °F /  17.1 °C 50.9 °F /  10.5 °C 30.30in /  1026hPa ESE 11.0mph /  17.7km/h 15.0mph /  24.1km/h 65% 0.00in /  0mm
14:11 63.0 °F /  17.2 °C 51.5 °F /  10.8 °C 30.29in /  1025.6hPa SSE 8.0mph /  12.9km/h 18.0mph /  29km/h 66% 0.00in /  0mm
14:16 63.7 °F /  17.6 °C 52.5 °F /  11.4 °C 30.29in /  1025.6hPa SSE 8.0mph /  12.9km/h 11.0mph /  17.7km/h 67% 0.00in /  0mm
14:21 64.0 °F /  17.8 °C 51.6 °F /  10.9 °C 30.29in /  1025.6hPa SSE 5.0mph /  8km/h 15.0mph /  24.1km/h 64% 0.00in /  0mm
14:26 64.4 °F /  18 °C 52.4 °F /  11.3 °C 30.28in /  1025.3hPa SE 5.0mph /  8km/h 14.0mph /  22.5km/h 65% 0.00in /  0mm
14:31 64.6 °F /  18.1 °C 52.2 °F /  11.2 °C 30.28in /  1025.3hPa ESE 11.0mph /  17.7km/h 15.0mph /  24.1km/h 64% 0.00in /  0mm
14:36 64.7 °F /  18.2 °C 53.1 °F /  11.7 °C 30.27in /  1024.9hPa SSE 13.0mph /  20.9km/h 15.0mph /  24.1km/h 66% 0.00in /  0mm
14:42 65.5 °F /  18.6 °C 53.4 °F /  11.9 °C 30.27in /  1024.9hPa SE 11.0mph /  17.7km/h 16.0mph /  25.7km/h 65% 0.00in /  0mm
14:47 66.1 °F /  18.9 °C 53.2 °F /  11.8 °C 30.27in /  1024.9hPa SE 14.0mph /  22.5km/h 20.0mph /  32.2km/h 63% 0.00in /  0mm
14:52 65.1 °F /  18.4 °C 51.8 °F /  11 °C 30.26in /  1024.6hPa SE 12.0mph /  19.3km/h 15.0mph /  24.1km/h 62% 0.00in /  0mm
14:57 64.8 °F /  18.2 °C 51.9 °F /  11.1 °C 30.26in /  1024.6hPa SE 14.0mph /  22.5km/h 18.0mph /  29km/h 63% 0.00in /  0mm
15:02 64.7 °F /  18.2 °C 52.7 °F /  11.5 °C 30.25in /  1024.3hPa ESE 17.0mph /  27.4km/h 17.0mph /  27.4km/h 65% 0.00in /  0mm
15:07 65.1 °F /  18.4 °C 52.6 °F /  11.4 °C 30.25in /  1024.3hPa ESE 12.0mph /  19.3km/h 18.0mph /  29km/h 64% 0.00in /  0mm
15:12 65.8 °F /  18.8 °C 53.7 °F /  12.1 °C 30.25in /  1024.3hPa ESE 9.0mph /  14.5km/h 19.0mph /  30.6km/h 65% 0.00in /  0mm
15:17 65.4 °F /  18.6 °C 52.1 °F /  11.2 °C 30.25in /  1024.3hPa SE 16.0mph /  25.7km/h 19.0mph /  30.6km/h 62% 0.00in /  0mm
15:22 64.9 °F /  18.3 °C 52.9 °F /  11.6 °C 30.25in /  1024.3hPa ESE 8.0mph /  12.9km/h 16.0mph /  25.7km/h 65% 0.00in /  0mm
15:27 64.7 °F /  18.2 °C 52.3 °F /  11.3 °C 30.24in /  1023.9hPa East 11.0mph /  17.7km/h 16.0mph /  25.7km/h 64% 0.00in /  0mm
15:32 64.5 °F /  18.1 °C 53.3 °F /  11.8 °C 30.24in /  1023.9hPa ESE 11.0mph /  17.7km/h 14.0mph /  22.5km/h 67% 0.00in /  0mm
15:37 65.1 °F /  18.4 °C 52.6 °F /  11.4 °C 30.23in /  1023.6hPa ESE 15.0mph /  24.1km/h 15.0mph /  24.1km/h 64% 0.00in /  0mm
15:42 64.9 °F /  18.3 °C 53.3 °F /  11.8 °C 30.23in /  1023.6hPa ESE 9.0mph /  14.5km/h 14.0mph /  22.5km/h 66% 0.00in /  0mm
15:43 65.0 °F /  18.3 °C 52.5 °F /  11.4 °C 30.23in /  1023.6hPa SE 9.0mph /  14.5km/h 14.0mph /  22.5km/h 64% 0.00in /  0mm
15:49 64.7 °F /  18.2 °C 52.3 °F /  11.3 °C 30.23in /  1023.6hPa ESE 8.0mph /  12.9km/h 16.0mph /  25.7km/h 64% 0.00in /  0mm
15:54 64.8 °F /  18.2 °C 53.2 °F /  11.8 °C 30.23in /  1023.6hPa ESE 17.0mph /  27.4km/h 17.0mph /  27.4km/h 66% 0.00in /  0mm
15:59 65.4 °F /  18.6 °C 53.3 °F /  11.8 °C 30.22in /  1023.2hPa SE 13.0mph /  20.9km/h 20.0mph /  32.2km/h 65% 0.00in /  0mm
16:04 65.5 °F /  18.6 °C 53.8 °F /  12.1 °C 30.22in /  1023.2hPa ESE 14.0mph /  22.5km/h 15.0mph /  24.1km/h 66% 0.00in /  0mm
16:09 65.7 °F /  18.7 °C 53.6 °F /  12 °C 30.22in /  1023.2hPa ESE 12.0mph /  19.3km/h 18.0mph /  29km/h 65% 0.00in /  0mm
16:14 65.2 °F /  18.4 °C 53.6 °F /  12 °C 30.22in /  1023.2hPa ESE 12.0mph /  19.3km/h 18.0mph /  29km/h 66% 0.00in /  0mm
16:19 64.5 °F /  18.1 °C 52.9 °F /  11.6 °C 30.22in /  1023.2hPa ESE 14.0mph /  22.5km/h 16.0mph /  25.7km/h 66% 0.00in /  0mm
16:24 64.2 °F /  17.9 °C 52.6 °F /  11.4 °C 30.22in /  1023.2hPa ESE 12.0mph /  19.3km/h 17.0mph /  27.4km/h 66% 0.00in /  0mm
16:29 64.1 °F /  17.8 °C 52.5 °F /  11.4 °C 30.22in /  1023.2hPa ESE 15.0mph /  24.1km/h 16.0mph /  25.7km/h 66% 0.00in /  0mm
16:34 64.1 °F /  17.8 °C 52.5 °F /  11.4 °C 30.21in /  1022.9hPa SE 10.0mph /  16.1km/h 17.0mph /  27.4km/h 66% 0.00in /  0mm
16:39 64.3 °F /  17.9 °C 53.1 °F /  11.7 °C 30.21in /  1022.9hPa SSE 8.0mph /  12.9km/h 13.0mph /  20.9km/h 67% 0.00in /  0mm
16:44 64.6 °F /  18.1 °C 53.4 °F /  11.9 °C 30.21in /  1022.9hPa SSE 9.0mph /  14.5km/h 11.0mph /  17.7km/h 67% 0.00in /  0mm
16:49 64.8 °F /  18.2 °C 52.8 °F /  11.6 °C 30.21in /  1022.9hPa SE 11.0mph /  17.7km/h 15.0mph /  24.1km/h 65% 0.00in /  0mm
16:54 64.5 °F /  18.1 °C 53.3 °F /  11.8 °C 30.20in /  1022.6hPa SE 10.0mph /  16.1km/h 18.0mph /  29km/h 67% 0.00in /  0mm
16:59 64.5 °F /  18.1 °C 53.3 °F /  11.8 °C 30.20in /  1022.6hPa SE 11.0mph /  17.7km/h 14.0mph /  22.5km/h 67% 0.00in /  0mm
17:04 65.0 °F /  18.3 °C 53.4 °F /  11.9 °C 30.20in /  1022.6hPa SE 10.0mph /  16.1km/h 18.0mph /  29km/h 66% 0.00in /  0mm
17:09 64.9 °F /  18.3 °C 52.5 °F /  11.4 °C 30.20in /  1022.6hPa SE 12.0mph /  19.3km/h 18.0mph /  29km/h 64% 0.00in /  0mm
17:14 64.5 °F /  18.1 °C 52.5 °F /  11.4 °C 30.19in /  1022.2hPa ESE 15.0mph /  24.1km/h 17.0mph /  27.4km/h 65% 0.00in /  0mm
17:19 64.4 °F /  18 °C 52.8 °F /  11.6 °C 30.19in /  1022.2hPa ESE 9.0mph /  14.5km/h 17.0mph /  27.4km/h 66% 0.00in /  0mm
17:24 64.4 °F /  18 °C 52.8 °F /  11.6 °C 30.19in /  1022.2hPa ESE 12.0mph /  19.3km/h 17.0mph /  27.4km/h 66% 0.00in /  0mm
17:29 64.4 °F /  18 °C 53.2 °F /  11.8 °C 30.19in /  1022.2hPa SE 9.0mph /  14.5km/h 11.0mph /  17.7km/h 67% 0.00in /  0mm
17:34 64.6 °F /  18.1 °C 53.4 °F /  11.9 °C 30.19in /  1022.2hPa SSE 7.0mph /  11.3km/h 12.0mph /  19.3km/h 67% 0.00in /  0mm
17:39 65.0 °F /  18.3 °C 53.0 °F /  11.7 °C 30.19in /  1022.2hPa ESE 10.0mph /  16.1km/h 13.0mph /  20.9km/h 65% 0.00in /  0mm
17:44 65.1 °F /  18.4 °C 52.6 °F /  11.4 °C 30.19in /  1022.2hPa SE 6.0mph /  9.7km/h 13.0mph /  20.9km/h 64% 0.00in /  0mm
17:49 64.9 °F /  18.3 °C 52.5 °F /  11.4 °C 30.19in /  1022.2hPa East 10.0mph /  16.1km/h 14.0mph /  22.5km/h 64% 0.00in /  0mm
17:55 64.8 °F /  18.2 °C 52.8 °F /  11.6 °C 30.19in /  1022.2hPa SE 9.0mph /  14.5km/h 11.0mph /  17.7km/h 65% 0.00in /  0mm
18:00 65.3 °F /  18.5 °C 52.8 °F /  11.6 °C 30.19in /  1022.2hPa ESE 7.0mph /  11.3km/h 15.0mph /  24.1km/h 64% 0.00in /  0mm
18:05 65.3 °F /  18.5 °C 52.8 °F /  11.6 °C 30.19in /  1022.2hPa ESE 11.0mph /  17.7km/h 11.0mph /  17.7km/h 64% 0.00in /  0mm
18:10 65.2 °F /  18.4 °C 53.2 °F /  11.8 °C 30.19in /  1022.2hPa SE 8.0mph /  12.9km/h 11.0mph /  17.7km/h 65% 0.00in /  0mm
18:15 65.1 °F /  18.4 °C 53.1 °F /  11.7 °C 30.19in /  1022.2hPa SE 7.0mph /  11.3km/h 12.0mph /  19.3km/h 65% 0.00in /  0mm
18:20 65.1 °F /  18.4 °C 53.1 °F /  11.7 °C 30.19in /  1022.2hPa ESE 11.0mph /  17.7km/h 11.0mph /  17.7km/h 65% 0.00in /  0mm
18:25 65.6 °F /  18.7 °C 53.5 °F /  11.9 °C 30.19in /  1022.2hPa ESE 8.0mph /  12.9km/h 13.0mph /  20.9km/h 65% 0.00in /  0mm
18:30 65.9 °F /  18.8 °C 53.0 °F /  11.7 °C 30.19in /  1022.2hPa SE 7.0mph /  11.3km/h 15.0mph /  24.1km/h 63% 0.00in /  0mm
18:35 65.6 °F /  18.7 °C 53.1 °F /  11.7 °C 30.19in /  1022.2hPa SE 12.0mph /  19.3km/h 14.0mph /  22.5km/h 64% 0.00in /  0mm
18:40 65.3 °F /  18.5 °C 52.8 °F /  11.6 °C 30.19in /  1022.2hPa SE 14.0mph /  22.5km/h 17.0mph /  27.4km/h 64% 0.00in /  0mm
18:45 65.1 °F /  18.4 °C 53.1 °F /  11.7 °C 30.19in /  1022.2hPa SE 9.0mph /  14.5km/h 13.0mph /  20.9km/h 65% 0.00in /  0mm
18:46 65.1 °F /  18.4 °C 53.1 °F /  11.7 °C 30.19in /  1022.2hPa SSE 8.0mph /  12.9km/h 13.0mph /  20.9km/h 65% 0.00in /  0mm
18:51 64.7 °F /  18.2 °C 53.1 °F /  11.7 °C 30.19in /  1022.2hPa ESE 12.0mph /  19.3km/h 13.0mph /  20.9km/h 66% 0.00in /  0mm
18:56 64.4 °F /  18 °C 53.2 °F /  11.8 °C 30.18in /  1021.9hPa ESE 10.0mph /  16.1km/h 13.0mph /  20.9km/h 67% 0.00in /  0mm
19:01 64.3 °F /  17.9 °C 53.1 °F /  11.7 °C 30.19in /  1022.2hPa SE 11.0mph /  17.7km/h 15.0mph /  24.1km/h 67% 0.00in /  0mm
19:06 64.4 °F /  18 °C 53.2 °F /  11.8 °C 30.18in /  1021.9hPa SE 13.0mph /  20.9km/h 14.0mph /  22.5km/h 67% 0.00in /  0mm
19:11 64.4 °F /  18 °C 53.2 °F /  11.8 °C 30.18in /  1021.9hPa SSE 13.0mph /  20.9km/h 16.0mph /  25.7km/h 67% 0.00in /  0mm
19:16 64.2 °F /  17.9 °C 53.4 °F /  11.9 °C 30.18in /  1021.9hPa SE 6.0mph /  9.7km/h 13.0mph /  20.9km/h 68% 0.00in /  0mm
19:21 64.1 °F /  17.8 °C 53.3 °F /  11.8 °C 30.19in /  1022.2hPa SE 7.0mph /  11.3km/h 14.0mph /  22.5km/h 68% 0.00in /  0mm
19:26 64.1 °F /  17.8 °C 53.3 °F /  11.8 °C 30.19in /  1022.2hPa ESE 7.0mph /  11.3km/h 12.0mph /  19.3km/h 68% 0.00in /  0mm
19:31 64.0 °F /  17.8 °C 53.2 °F /  11.8 °C 30.19in /  1022.2hPa SE 9.0mph /  14.5km/h 12.0mph /  19.3km/h 68% 0.00in /  0mm
19:36 64.0 °F /  17.8 °C 53.2 °F /  11.8 °C 30.18in /  1021.9hPa SE 10.0mph /  16.1km/h 13.0mph /  20.9km/h 68% 0.00in /  0mm
19:41 64.0 °F /  17.8 °C 53.2 °F /  11.8 °C 30.18in /  1021.9hPa SE 11.0mph /  17.7km/h 15.0mph /  24.1km/h 68% 0.00in /  0mm
19:46 64.0 °F /  17.8 °C 53.2 °F /  11.8 °C 30.18in /  1021.9hPa ESE 8.0mph /  12.9km/h 13.0mph /  20.9km/h 68% 0.00in /  0mm
19:51 64.0 °F /  17.8 °C 53.2 °F /  11.8 °C 30.18in /  1021.9hPa ESE 9.0mph /  14.5km/h 12.0mph /  19.3km/h 68% 0.00in /  0mm
19:56 63.9 °F /  17.7 °C 53.1 °F /  11.7 °C 30.19in /  1022.2hPa SE 6.0mph /  9.7km/h 10.0mph /  16.1km/h 68% 0.00in /  0mm
20:01 63.9 °F /  17.7 °C 53.1 °F /  11.7 °C 30.19in /  1022.2hPa ESE 9.0mph /  14.5km/h 10.0mph /  16.1km/h 68% 0.00in /  0mm
20:06 63.9 °F /  17.7 °C 53.1 °F /  11.7 °C 30.19in /  1022.2hPa ESE 5.0mph /  8km/h 11.0mph /  17.7km/h 68% 0.00in /  0mm
20:11 63.9 °F /  17.7 °C 53.5 °F /  11.9 °C 30.19in /  1022.2hPa SE 7.0mph /  11.3km/h 9.0mph /  14.5km/h 69% 0.00in /  0mm
20:16 63.9 °F /  17.7 °C 53.5 °F /  11.9 °C 30.19in /  1022.2hPa SE 6.0mph /  9.7km/h 9.0mph /  14.5km/h 69% 0.00in /  0mm
20:21 63.9 °F /  17.7 °C 53.5 °F /  11.9 °C 30.19in /  1022.2hPa SE 6.0mph /  9.7km/h 11.0mph /  17.7km/h 69% 0.00in /  0mm
20:26 63.9 °F /  17.7 °C 53.5 °F /  11.9 °C 30.19in /  1022.2hPa ESE 10.0mph /  16.1km/h 11.0mph /  17.7km/h 69% 0.00in /  0mm
20:31 64.0 °F /  17.8 °C 53.6 °F /  12 °C 30.19in /  1022.2hPa ESE 5.0mph /  8km/h 13.0mph /  20.9km/h 69% 0.00in /  0mm
20:36 64.0 °F /  17.8 °C 53.6 °F /  12 °C 30.19in /  1022.2hPa SE 9.0mph /  14.5km/h 12.0mph /  19.3km/h 69% 0.00in /  0mm
20:41 63.9 °F /  17.7 °C 53.5 °F /  11.9 °C 30.19in /  1022.2hPa SE 10.0mph /  16.1km/h 12.0mph /  19.3km/h 69% 0.00in /  0mm
20:46 64.0 °F /  17.8 °C 53.6 °F /  12 °C 30.19in /  1022.2hPa ESE 8.0mph /  12.9km/h 12.0mph /  19.3km/h 69% 0.00in /  0mm
20:51 64.0 °F /  17.8 °C 53.6 °F /  12 °C 30.19in /  1022.2hPa SE 9.0mph /  14.5km/h 11.0mph /  17.7km/h 69% 0.00in /  0mm
20:56 64.0 °F /  17.8 °C 53.6 °F /  12 °C 30.20in /  1022.6hPa SE 6.0mph /  9.7km/h 12.0mph /  19.3km/h 69% 0.00in /  0mm
21:01 64.1 °F /  17.8 °C 53.7 °F /  12.1 °C 30.20in /  1022.6hPa SE 6.0mph /  9.7km/h 10.0mph /  16.1km/h 69% 0.00in /  0mm
21:06 64.2 °F /  17.9 °C 53.8 °F /  12.1 °C 30.20in /  1022.6hPa SE 9.0mph /  14.5km/h 11.0mph /  17.7km/h 69% 0.00in /  0mm
21:11 64.1 °F /  17.8 °C 54.1 °F /  12.3 °C 30.20in /  1022.6hPa SSE 9.0mph /  14.5km/h 11.0mph /  17.7km/h 70% 0.00in /  0mm
21:16 64.0 °F /  17.8 °C 54.4 °F /  12.4 °C 30.20in /  1022.6hPa SE 3.0mph /  4.8km/h 10.0mph /  16.1km/h 71% 0.00in /  0mm
21:21 63.6 °F /  17.6 °C 54.4 °F /  12.4 °C 30.20in /  1022.6hPa SE 8.0mph /  12.9km/h 8.0mph /  12.9km/h 72% 0.00in /  0mm
21:27 63.3 °F /  17.4 °C 54.5 °F /  12.5 °C 30.20in /  1022.6hPa ESE 10.0mph /  16.1km/h 10.0mph /  16.1km/h 73% 0.00in /  0mm
21:32 63.2 °F /  17.3 °C 54.8 °F /  12.7 °C 30.20in /  1022.6hPa SE 6.0mph /  9.7km/h 9.0mph /  14.5km/h 74% 0.00in /  0mm
21:37 63.0 °F /  17.2 °C 54.6 °F /  12.6 °C 30.20in /  1022.6hPa ESE 6.0mph /  9.7km/h 8.0mph /  12.9km/h 74% 0.00in /  0mm
21:42 62.9 °F /  17.2 °C 54.5 °F /  12.5 °C 30.20in /  1022.6hPa SE 4.0mph /  6.4km/h 10.0mph /  16.1km/h 74% 0.00in /  0mm
21:47 62.8 °F /  17.1 °C 54.8 °F /  12.7 °C 30.19in /  1022.2hPa ESE 9.0mph /  14.5km/h 10.0mph /  16.1km/h 75% 0.00in /  0mm
21:52 62.6 °F /  17 °C 54.9 °F /  12.7 °C 30.19in /  1022.2hPa ESE 9.0mph /  14.5km/h 10.0mph /  16.1km/h 76% 0.00in /  0mm
21:57 62.7 °F /  17.1 °C 55.0 °F /  12.8 °C 30.19in /  1022.2hPa ESE 10.0mph /  16.1km/h 12.0mph /  19.3km/h 76% 0.00in /  0mm
22:02 62.9 °F /  17.2 °C 54.9 °F /  12.7 °C 30.19in /  1022.2hPa SSE 7.0mph /  11.3km/h 13.0mph /  20.9km/h 75% 0.00in /  0mm
22:07 63.1 °F /  17.3 °C 55.1 °F /  12.8 °C 30.18in /  1021.9hPa ESE 20.0mph /  32.2km/h 20.0mph /  32.2km/h 75% 0.00in /  0mm
22:12 63.3 °F /  17.4 °C 55.2 °F /  12.9 °C 30.18in /  1021.9hPa SE 14.0mph /  22.5km/h 15.0mph /  24.1km/h 75% 0.00in /  0mm
22:17 63.2 °F /  17.3 °C 55.2 °F /  12.9 °C 30.17in /  1021.6hPa ESE 15.0mph /  24.1km/h 15.0mph /  24.1km/h 75% 0.00in /  0mm
22:22 63.3 °F /  17.4 °C 55.2 °F /  12.9 °C 30.16in /  1021.2hPa SE 14.0mph /  22.5km/h 19.0mph /  30.6km/h 75% 0.00in /  0mm
22:27 63.4 °F /  17.4 °C 55.0 °F /  12.8 °C 30.17in /  1021.6hPa SE 8.0mph /  12.9km/h 15.0mph /  24.1km/h 74% 0.00in /  0mm
22:32 63.4 °F /  17.4 °C 55.0 °F /  12.8 °C 30.17in /  1021.6hPa ESE 9.0mph /  14.5km/h 15.0mph /  24.1km/h 74% 0.00in /  0mm
22:37 63.4 °F /  17.4 °C 55.0 °F /  12.8 °C 30.17in /  1021.6hPa SE 6.0mph /  9.7km/h 13.0mph /  20.9km/h 74% 0.00in /  0mm
22:42 63.5 °F /  17.5 °C 55.1 °F /  12.8 °C 30.18in /  1021.9hPa SE 9.0mph /  14.5km/h 11.0mph /  17.7km/h 74% 0.00in /  0mm
22:47 63.7 °F /  17.6 °C 55.3 °F /  12.9 °C 30.18in /  1021.9hPa SE 12.0mph /  19.3km/h 16.0mph /  25.7km/h 74% 0.00in /  0mm
22:52 63.7 °F /  17.6 °C 55.3 °F /  12.9 °C 30.18in /  1021.9hPa SE 10.0mph /  16.1km/h 18.0mph /  29km/h 74% 0.00in /  0mm
22:57 63.7 °F /  17.6 °C 55.3 °F /  12.9 °C 30.18in /  1021.9hPa SE 11.0mph /  17.7km/h 20.0mph /  32.2km/h 74% 0.00in /  0mm
23:02 63.7 °F /  17.6 °C 55.3 °F /  12.9 °C 30.19in /  1022.2hPa SE 10.0mph /  16.1km/h 17.0mph /  27.4km/h 74% 0.00in /  0mm
23:07 63.6 °F /  17.6 °C 55.5 °F /  13.1 °C 30.19in /  1022.2hPa ESE 15.0mph /  24.1km/h 15.0mph /  24.1km/h 75% 0.00in /  0mm
23:12 63.6 °F /  17.6 °C 55.5 °F /  13.1 °C 30.20in /  1022.6hPa ESE 12.0mph /  19.3km/h 15.0mph /  24.1km/h 75% 0.00in /  0mm
23:17 63.5 °F /  17.5 °C 55.4 °F /  13 °C 30.19in /  1022.2hPa ESE 11.0mph /  17.7km/h 14.0mph /  22.5km/h 75% 0.00in /  0mm
23:23 63.5 °F /  17.5 °C 55.4 °F /  13 °C 30.20in /  1022.6hPa SE 10.0mph /  16.1km/h 15.0mph /  24.1km/h 75% 0.00in /  0mm
23:27 63.5 °F /  17.5 °C 55.8 °F /  13.2 °C 30.20in /  1022.6hPa SE 9.0mph /  14.5km/h 18.0mph /  29km/h 76% 0.00in /  0mm
23:33 63.4 °F /  17.4 °C 55.7 °F /  13.2 °C 30.20in /  1022.6hPa SE 10.0mph /  16.1km/h 15.0mph /  24.1km/h 76% 0.00in /  0mm
23:38 63.3 °F /  17.4 °C 55.6 °F /  13.1 °C 30.20in /  1022.6hPa SE 10.0mph /  16.1km/h 14.0mph /  22.5km/h 76% 0.00in /  0mm
23:43 63.4 °F /  17.4 °C 55.7 °F /  13.2 °C 30.21in /  1022.9hPa SE 15.0mph /  24.1km/h 15.0mph /  24.1km/h 76% 0.00in /  0mm
23:48 63.3 °F /  17.4 °C 56.0 °F /  13.3 °C 30.20in /  1022.6hPa SE 8.0mph /  12.9km/h 16.0mph /  25.7km/h 77% 0.00in /  0mm
23:53 63.3 °F /  17.4 °C 56.0 °F /  13.3 °C 30.20in /  1022.6hPa SSE 9.0mph /  14.5km/h 15.0mph /  24.1km/h 77% 0.00in /  0mm
23:58 63.3 °F /  17.4 °C 55.6 °F /  13.1 °C 30.20in /  1022.6hPa SE 13.0mph /  20.9km/h 17.0mph /  27.4km/h 76% 0.00in /  0mm
Compliments of Weather Underground